createdAt,value
2019-01-15T00:00:29.202Z,3.49
2019-01-15T00:01:04.847Z,3.44
2019-01-15T00:01:40.295Z,3.39
2019-01-15T00:02:15.713Z,3.38
2019-01-15T00:02:51.176Z,3.38
2019-01-15T00:03:26.843Z,3.41
2019-01-15T00:04:02.281Z,3.35
2019-01-15T00:04:37.971Z,3.38
2019-01-15T00:05:13.675Z,3.43
2019-01-15T00:05:49.102Z,3.45
2019-01-15T00:06:24.632Z,3.45
2019-01-15T00:07:00.308Z,3.46
2019-01-15T00:07:35.988Z,3.45
2019-01-15T00:08:11.439Z,3.38
2019-01-15T00:08:46.853Z,3.51
2019-01-15T00:09:22.276Z,3.48
2019-01-15T00:09:57.817Z,3.41
2019-01-15T00:10:33.253Z,3.41
2019-01-15T00:11:08.785Z,3.48
2019-01-15T00:11:44.204Z,3.60
2019-01-15T00:12:19.731Z,3.51
2019-01-15T00:12:55.205Z,3.43
2019-01-15T00:13:30.631Z,3.49
2019-01-15T00:14:06.252Z,3.44
2019-01-15T00:14:41.936Z,3.44
2019-01-15T00:15:17.443Z,3.43
2019-01-15T00:15:53.134Z,3.47
2019-01-15T00:16:28.852Z,3.45
2019-01-15T00:17:04.545Z,3.46
2019-01-15T00:17:40.506Z,3.46
2019-01-15T00:18:16.553Z,3.52
2019-01-15T00:18:51.980Z,3.60
2019-01-15T00:19:27.736Z,3.58
2019-01-15T00:20:03.235Z,3.62
2019-01-15T00:20:38.660Z,3.55
2019-01-15T00:21:14.143Z,3.44
2019-01-15T00:21:49.806Z,3.58
2019-01-15T00:22:25.563Z,3.49
2019-01-15T00:23:01.131Z,3.50
2019-01-15T00:23:36.622Z,3.54
2019-01-15T00:24:12.038Z,3.57
2019-01-15T00:24:47.464Z,3.52
2019-01-15T00:25:23.265Z,3.42
2019-01-15T00:25:58.986Z,3.38
2019-01-15T00:26:34.453Z,3.46
2019-01-15T00:27:09.864Z,3.46
2019-01-15T00:27:46.285Z,3.48
2019-01-15T00:28:22.686Z,3.44
2019-01-15T00:28:58.899Z,3.42
2019-01-15T00:29:35.278Z,3.58
2019-01-15T00:30:13.549Z,3.55
2019-01-15T00:30:50.001Z,3.65
2019-01-15T00:31:26.371Z,3.60
2019-01-15T00:32:02.732Z,3.59
2019-01-15T00:32:38.917Z,3.51
2019-01-15T00:33:14.401Z,3.59
2019-01-15T00:33:49.843Z,3.47
2019-01-15T00:34:25.251Z,3.40
2019-01-15T00:35:00.908Z,3.40
2019-01-15T00:35:36.656Z,3.41
2019-01-15T00:36:12.084Z,3.38
2019-01-15T00:36:48.328Z,3.35
2019-01-15T00:37:23.727Z,3.38
2019-01-15T00:37:59.191Z,3.34
2019-01-15T00:38:36.325Z,3.31
2019-01-15T00:39:11.948Z,3.40
2019-01-15T00:39:47.383Z,3.41
2019-01-15T00:40:22.803Z,3.39
2019-01-15T00:40:58.861Z,3.37
2019-01-15T00:41:34.317Z,3.40
2019-01-15T00:42:15.181Z,3.35
2019-01-15T00:42:47.452Z,3.38
2019-01-15T00:43:23.170Z,3.36
2019-01-15T00:43:58.720Z,3.29
2019-01-15T00:44:34.401Z,3.41
2019-01-15T00:45:10.341Z,3.34
2019-01-15T00:45:45.771Z,3.33
2019-01-15T00:46:21.216Z,3.49
2019-01-15T00:46:56.921Z,3.45
2019-01-15T00:47:32.867Z,3.46
2019-01-15T00:48:08.578Z,3.43
2019-01-15T00:48:44.001Z,3.34
2019-01-15T00:49:19.416Z,3.29
2019-01-15T00:49:55.145Z,3.31
2019-01-15T00:50:30.835Z,3.41
2019-01-15T00:51:06.241Z,3.39
2019-01-15T00:51:41.669Z,3.40
2019-01-15T00:52:17.100Z,3.35
2019-01-15T00:52:52.824Z,3.34
2019-01-15T00:53:28.279Z,3.31
2019-01-15T00:54:03.726Z,3.44
2019-01-15T00:54:39.132Z,3.42
2019-01-15T00:55:14.652Z,3.51
2019-01-15T00:55:50.096Z,3.51
2019-01-15T00:56:25.916Z,3.65
2019-01-15T00:57:01.880Z,3.59
2019-01-15T00:57:37.298Z,3.57
2019-01-15T00:58:12.755Z,3.51
2019-01-15T00:58:48.325Z,3.58
2019-01-15T00:59:23.766Z,3.48
2019-01-15T00:59:59.422Z,3.51
2019-01-15T01:00:35.211Z,3.49
2019-01-15T01:01:11.071Z,3.45
2019-01-15T01:01:46.534Z,3.45
2019-01-15T01:02:21.960Z,3.38
2019-01-15T01:02:57.729Z,3.45
2019-01-15T01:03:33.218Z,3.39
2019-01-15T01:04:08.661Z,3.50
2019-01-15T01:04:44.379Z,3.43
2019-01-15T01:05:20.831Z,3.38
2019-01-15T01:05:56.533Z,3.37
2019-01-15T01:06:33.567Z,3.39
2019-01-15T01:07:09.029Z,3.35
2019-01-15T01:07:44.466Z,3.33
2019-01-15T01:08:20.169Z,3.33
2019-01-15T01:08:55.575Z,3.40
2019-01-15T01:09:31.323Z,3.42
2019-01-15T01:10:07.630Z,3.41
2019-01-15T01:10:43.070Z,3.46
2019-01-15T01:11:18.476Z,3.46
2019-01-15T01:11:54.288Z,3.41
2019-01-15T01:12:30.054Z,3.43
2019-01-15T01:13:05.782Z,3.41
2019-01-15T01:13:41.340Z,3.40
2019-01-15T01:14:16.865Z,3.38
2019-01-15T01:14:52.320Z,3.46
2019-01-15T01:15:27.754Z,3.39
2019-01-15T01:16:03.238Z,3.43
2019-01-15T01:16:38.681Z,3.39
2019-01-15T01:17:14.105Z,3.40
2019-01-15T01:17:49.812Z,3.36
2019-01-15T01:18:25.275Z,3.40
2019-01-15T01:19:00.800Z,3.34
2019-01-15T01:19:36.261Z,3.31
2019-01-15T01:20:13.683Z,3.35
2019-01-15T01:20:49.348Z,3.50
2019-01-15T01:21:24.906Z,3.44
2019-01-15T01:22:00.716Z,3.39
2019-01-15T01:22:36.258Z,3.35
2019-01-15T01:23:11.714Z,3.30
2019-01-15T01:23:47.159Z,3.26
2019-01-15T01:24:22.572Z,3.33
2019-01-15T01:24:57.991Z,3.32
2019-01-15T01:25:33.795Z,3.31
2019-01-15T01:26:09.355Z,3.45
2019-01-15T01:26:44.785Z,3.36
2019-01-15T01:27:20.215Z,3.34
2019-01-15T01:27:55.631Z,3.32
2019-01-15T01:28:31.616Z,3.40
2019-01-15T01:29:07.305Z,3.41
2019-01-15T01:29:43.055Z,3.41
2019-01-15T01:30:23.306Z,3.46
2019-01-15T01:31:01.109Z,3.35
2019-01-15T01:31:36.549Z,3.42
2019-01-15T01:32:12.255Z,3.41
2019-01-15T01:32:47.694Z,3.38
2019-01-15T01:33:23.216Z,3.43
2019-01-15T01:33:59.024Z,3.43
2019-01-15T01:34:34.479Z,3.39
2019-01-15T01:35:10.031Z,3.35
2019-01-15T01:35:45.467Z,3.33
2019-01-15T01:36:20.880Z,3.35
2019-01-15T01:36:56.311Z,3.33
2019-01-15T01:37:32.076Z,3.38
2019-01-15T01:38:07.662Z,3.30
2019-01-15T01:38:43.109Z,3.26
2019-01-15T01:39:18.796Z,3.28
2019-01-15T01:39:55.912Z,3.27
2019-01-15T01:40:31.351Z,3.31
2019-01-15T01:41:06.828Z,3.21
2019-01-15T01:41:42.294Z,3.23
2019-01-15T01:42:18.066Z,3.16
2019-01-15T01:42:53.611Z,3.14
2019-01-15T01:43:29.707Z,3.12
2019-01-15T01:44:05.404Z,3.19
2019-01-15T01:44:41.365Z,3.16
2019-01-15T01:45:17.382Z,3.24
2019-01-15T01:45:52.799Z,3.19
2019-01-15T01:46:28.225Z,3.27
2019-01-15T01:47:03.963Z,3.27
2019-01-15T01:47:39.421Z,3.20
2019-01-15T01:48:14.988Z,3.21
2019-01-15T01:48:50.434Z,3.31
2019-01-15T01:49:25.887Z,3.26
2019-01-15T01:50:02.134Z,3.41
2019-01-15T01:50:37.659Z,3.30
2019-01-15T01:51:13.113Z,3.25
2019-01-15T01:51:48.641Z,3.20
2019-01-15T01:52:24.348Z,3.18
2019-01-15T01:52:59.809Z,3.23
2019-01-15T01:53:35.281Z,3.29
2019-01-15T01:54:10.974Z,3.29
2019-01-15T01:54:46.490Z,3.23
2019-01-15T01:55:22.180Z,3.18
2019-01-15T01:55:58.416Z,3.26
2019-01-15T01:56:33.947Z,3.26
2019-01-15T01:57:09.404Z,3.24
2019-01-15T01:57:45.281Z,3.16
2019-01-15T01:58:20.708Z,3.17
2019-01-15T01:58:56.159Z,3.33
2019-01-15T01:59:31.907Z,3.39
2019-01-15T02:00:15.707Z,3.32
2019-01-15T02:00:51.111Z,3.28
2019-01-15T02:01:26.541Z,3.28
2019-01-15T02:02:02.340Z,3.40
2019-01-15T02:02:37.961Z,3.34
2019-01-15T02:03:13.373Z,3.28
2019-01-15T02:03:48.808Z,3.32
2019-01-15T02:04:24.336Z,3.27
2019-01-15T02:05:00.181Z,3.25
2019-01-15T02:05:35.585Z,3.17
2019-01-15T02:06:11.006Z,3.13
2019-01-15T02:06:46.414Z,3.07
2019-01-15T02:07:21.908Z,3.08
2019-01-15T02:07:57.329Z,3.09
2019-01-15T02:08:32.907Z,3.24
2019-01-15T02:09:09.533Z,3.22
2019-01-15T02:09:45.199Z,3.21
2019-01-15T02:10:20.968Z,3.16
2019-01-15T02:10:56.378Z,3.22
2019-01-15T02:11:31.874Z,3.18
2019-01-15T02:12:07.487Z,3.26
2019-01-15T02:12:42.978Z,3.27
2019-01-15T02:13:18.402Z,3.22
2019-01-15T02:13:53.837Z,3.25
2019-01-15T02:14:29.253Z,3.21
2019-01-15T02:15:05.719Z,3.20
2019-01-15T02:15:41.139Z,3.26
2019-01-15T02:16:16.597Z,3.18
2019-01-15T02:16:52.303Z,3.29
2019-01-15T02:17:27.695Z,3.25
2019-01-15T02:18:03.145Z,3.22
2019-01-15T02:18:38.587Z,3.15
2019-01-15T02:19:14.457Z,3.26
2019-01-15T02:19:50.143Z,3.20
2019-01-15T02:20:26.179Z,3.16
2019-01-15T02:21:01.670Z,3.14
2019-01-15T02:21:37.581Z,3.10
2019-01-15T02:22:13.019Z,3.09
2019-01-15T02:22:48.963Z,3.17
2019-01-15T02:23:24.408Z,3.09
2019-01-15T02:24:00.125Z,3.06
2019-01-15T02:24:35.651Z,2.98
2019-01-15T02:25:11.959Z,2.93
2019-01-15T02:25:47.645Z,2.93
2019-01-15T02:26:23.097Z,2.99
2019-01-15T02:27:00.212Z,3.01
2019-01-15T02:27:36.966Z,2.97
2019-01-15T02:28:12.380Z,2.93
2019-01-15T02:28:47.808Z,2.90
2019-01-15T02:29:23.246Z,3.05
2019-01-15T02:29:58.925Z,3.04
2019-01-15T02:30:34.455Z,3.09
2019-01-15T02:31:10.145Z,3.22
2019-01-15T02:31:46.274Z,3.12
2019-01-15T02:32:21.688Z,3.10
2019-01-15T02:32:57.099Z,3.05
2019-01-15T02:33:32.534Z,3.00
2019-01-15T02:34:07.993Z,3.05
2019-01-15T02:34:43.410Z,3.01
2019-01-15T02:35:18.830Z,3.03
2019-01-15T02:35:54.559Z,3.03
2019-01-15T02:36:30.051Z,3.04
2019-01-15T02:37:05.983Z,3.14
2019-01-15T02:37:41.417Z,3.09
2019-01-15T02:38:17.445Z,3.05
2019-01-15T02:38:53.017Z,3.01
2019-01-15T02:39:28.712Z,3.06
2019-01-15T02:40:05.334Z,3.03
2019-01-15T02:40:40.768Z,3.09
2019-01-15T02:41:16.459Z,3.03
2019-01-15T02:41:52.350Z,3.02
2019-01-15T02:42:27.779Z,3.03
2019-01-15T02:43:03.557Z,3.16
2019-01-15T02:43:39.257Z,3.18
2019-01-15T02:44:14.970Z,3.10
2019-01-15T02:44:50.410Z,3.20
2019-01-15T02:45:26.084Z,3.16
2019-01-15T02:46:01.924Z,3.03
2019-01-15T02:46:37.703Z,2.99
2019-01-15T02:47:13.536Z,3.01
2019-01-15T02:47:49.080Z,2.99
2019-01-15T02:48:24.560Z,3.00
2019-01-15T02:49:00.034Z,3.14
2019-01-15T02:49:35.486Z,3.16
2019-01-15T02:50:13.812Z,3.07
2019-01-15T02:50:49.470Z,3.05
2019-01-15T02:51:24.914Z,3.00
2019-01-15T02:52:00.612Z,2.99
2019-01-15T02:52:36.060Z,3.01
2019-01-15T02:53:11.491Z,3.13
2019-01-15T02:53:47.003Z,3.17
2019-01-15T02:54:22.803Z,3.16
2019-01-15T02:54:58.215Z,3.19
2019-01-15T02:55:33.667Z,3.16
2019-01-15T02:56:09.373Z,3.23
2019-01-15T02:56:45.082Z,3.20
2019-01-15T02:57:20.630Z,3.22
2019-01-15T02:57:56.148Z,3.10
2019-01-15T02:58:31.843Z,3.13
2019-01-15T02:59:07.384Z,3.20
2019-01-15T02:59:42.877Z,3.15
2019-01-15T03:00:20.518Z,3.16
2019-01-15T03:00:56.175Z,3.15
2019-01-15T03:01:31.965Z,3.13
2019-01-15T03:02:07.784Z,3.06
2019-01-15T03:02:43.464Z,3.06
2019-01-15T03:03:18.892Z,3.22
2019-01-15T03:03:54.302Z,3.36
2019-01-15T03:04:29.757Z,3.35
2019-01-15T03:05:06.061Z,3.28
2019-01-15T03:05:41.472Z,3.34
2019-01-15T03:06:16.926Z,3.33
2019-01-15T03:06:52.356Z,3.26
2019-01-15T03:07:27.786Z,3.28
2019-01-15T03:08:04.597Z,3.33
2019-01-15T03:08:40.019Z,3.34
2019-01-15T03:09:15.732Z,3.36
2019-01-15T03:09:51.435Z,3.28
2019-01-15T03:10:26.886Z,3.26
2019-01-15T03:11:02.256Z,3.23
2019-01-15T03:11:37.800Z,3.36
2019-01-15T03:12:13.226Z,3.42
2019-01-15T03:12:56.732Z,3.38
2019-01-15T03:13:29.626Z,3.32
2019-01-15T03:14:05.710Z,3.24
2019-01-15T03:14:41.132Z,3.17
2019-01-15T03:15:16.534Z,3.19
2019-01-15T03:15:52.021Z,3.22
2019-01-15T03:16:27.705Z,3.19
2019-01-15T03:17:03.159Z,3.21
2019-01-15T03:17:38.693Z,3.21
2019-01-15T03:18:14.119Z,3.20
2019-01-15T03:18:49.567Z,3.27
2019-01-15T03:19:24.950Z,3.34
2019-01-15T03:20:00.461Z,3.28
2019-01-15T03:20:35.924Z,3.37
2019-01-15T03:21:11.368Z,3.38
2019-01-15T03:21:47.354Z,3.43
2019-01-15T03:22:23.062Z,3.41
2019-01-15T03:22:58.493Z,3.41
2019-01-15T03:23:34.640Z,3.43
2019-01-15T03:24:10.078Z,3.33
2019-01-15T03:24:45.514Z,3.28
2019-01-15T03:25:21.146Z,3.28
2019-01-15T03:25:56.559Z,3.22
2019-01-15T03:26:32.345Z,3.25
2019-01-15T03:27:08.155Z,3.25
2019-01-15T03:27:43.683Z,3.28
2019-01-15T03:28:19.110Z,3.32
2019-01-15T03:28:54.506Z,3.32
2019-01-15T03:29:29.945Z,3.21
2019-01-15T03:30:07.207Z,3.29
2019-01-15T03:30:42.662Z,3.28
2019-01-15T03:31:18.126Z,3.26
2019-01-15T03:31:53.566Z,3.29
2019-01-15T03:32:29.764Z,3.25
2019-01-15T03:33:05.433Z,3.21
2019-01-15T03:33:41.109Z,3.21
2019-01-15T03:34:16.511Z,3.16
2019-01-15T03:34:52.575Z,3.30
2019-01-15T03:35:28.022Z,3.24
2019-01-15T03:36:03.499Z,3.33
2019-01-15T03:36:39.255Z,3.48
2019-01-15T03:37:14.997Z,3.38
2019-01-15T03:37:50.440Z,3.31
2019-01-15T03:38:25.952Z,3.32
2019-01-15T03:39:01.421Z,3.30
2019-01-15T03:39:36.867Z,3.26
2019-01-15T03:40:18.509Z,3.25
2019-01-15T03:40:54.210Z,3.31
2019-01-15T03:41:29.663Z,3.28
2019-01-15T03:42:05.482Z,3.29
2019-01-15T03:42:40.915Z,3.27
2019-01-15T03:43:16.338Z,3.27
2019-01-15T03:43:52.050Z,3.27
2019-01-15T03:44:27.713Z,3.22
2019-01-15T03:45:04.962Z,3.26
2019-01-15T03:45:40.341Z,3.18
2019-01-15T03:46:15.769Z,3.11
2019-01-15T03:46:51.296Z,3.02
2019-01-15T03:47:26.819Z,2.99
2019-01-15T03:48:02.535Z,3.02
2019-01-15T03:48:38.026Z,2.89
2019-01-15T03:49:13.477Z,2.90
2019-01-15T03:49:48.989Z,2.95
2019-01-15T03:50:24.684Z,2.86
2019-01-15T03:51:00.483Z,2.69
2019-01-15T03:51:35.917Z,2.78
2019-01-15T03:52:11.454Z,2.84
2019-01-15T03:52:46.874Z,2.78
2019-01-15T03:53:22.286Z,2.71
2019-01-15T03:53:57.695Z,2.77
2019-01-15T03:54:33.698Z,2.77
2019-01-15T03:55:10.436Z,2.71
2019-01-15T03:55:45.856Z,2.73
2019-01-15T03:56:21.571Z,2.65
2019-01-15T03:56:57.242Z,2.64
2019-01-15T03:57:32.708Z,2.59
2019-01-15T03:58:08.478Z,2.67
2019-01-15T03:58:43.910Z,2.70
2019-01-15T03:59:19.352Z,2.64
2019-01-15T03:59:54.768Z,2.68
2019-01-15T04:00:30.258Z,2.67
2019-01-15T04:01:06.421Z,2.66
2019-01-15T04:01:41.874Z,2.69
2019-01-15T04:02:17.393Z,2.69
2019-01-15T04:02:52.887Z,2.65
2019-01-15T04:03:28.655Z,2.58
2019-01-15T04:04:04.173Z,2.66
2019-01-15T04:04:39.876Z,2.63
2019-01-15T04:05:16.276Z,2.58
2019-01-15T04:05:51.813Z,2.65
2019-01-15T04:06:27.255Z,2.70
2019-01-15T04:07:02.903Z,2.61
2019-01-15T04:07:38.677Z,2.61
2019-01-15T04:08:14.179Z,2.55
2019-01-15T04:08:49.640Z,2.55
2019-01-15T04:09:25.504Z,2.59
2019-01-15T04:10:00.986Z,2.56
2019-01-15T04:10:36.475Z,2.52
2019-01-15T04:11:12.292Z,2.64
2019-01-15T04:11:47.982Z,2.60
2019-01-15T04:12:23.405Z,2.56
2019-01-15T04:12:59.131Z,2.55
2019-01-15T04:13:34.657Z,2.58
2019-01-15T04:14:10.387Z,2.56
2019-01-15T04:14:45.823Z,2.50
2019-01-15T04:15:21.541Z,2.48
2019-01-15T04:15:56.987Z,2.48
2019-01-15T04:16:32.785Z,2.49
2019-01-15T04:17:08.379Z,2.51
2019-01-15T04:17:43.814Z,2.46
2019-01-15T04:18:19.249Z,2.45
2019-01-15T04:18:54.694Z,2.44
2019-01-15T04:19:30.496Z,2.42
2019-01-15T04:20:08.541Z,2.43
2019-01-15T04:20:44.068Z,2.57
2019-01-15T04:21:19.835Z,2.53
2019-01-15T04:21:55.268Z,2.53
2019-01-15T04:22:30.674Z,2.63
2019-01-15T04:23:06.160Z,2.70
2019-01-15T04:23:41.907Z,2.63
2019-01-15T04:24:17.342Z,2.76
2019-01-15T04:24:52.783Z,2.59
2019-01-15T04:25:28.717Z,2.54
2019-01-15T04:26:04.364Z,2.54
2019-01-15T04:26:41.359Z,2.48
2019-01-15T04:27:16.788Z,2.47
2019-01-15T04:27:52.527Z,2.52
2019-01-15T04:28:28.000Z,2.41
2019-01-15T04:29:03.450Z,2.36
2019-01-15T04:29:38.927Z,2.38
2019-01-15T04:30:22.864Z,2.51
2019-01-15T04:30:58.303Z,2.55
2019-01-15T04:31:33.813Z,2.53
2019-01-15T04:32:09.280Z,2.52
2019-01-15T04:32:44.749Z,2.38
2019-01-15T04:33:20.450Z,2.49
2019-01-15T04:33:55.880Z,2.43
2019-01-15T04:34:31.620Z,2.51
2019-01-15T04:35:08.200Z,2.43
2019-01-15T04:35:43.656Z,2.47
2019-01-15T04:36:19.163Z,2.37
2019-01-15T04:36:54.599Z,2.40
2019-01-15T04:37:30.058Z,2.51
2019-01-15T04:38:05.880Z,2.45
2019-01-15T04:38:41.372Z,2.49
2019-01-15T04:39:16.830Z,2.44
2019-01-15T04:39:52.683Z,2.40
2019-01-15T04:40:28.101Z,2.40
2019-01-15T04:41:03.856Z,2.33
2019-01-15T04:41:39.334Z,2.32
2019-01-15T04:42:14.751Z,2.35
2019-01-15T04:42:50.527Z,2.36
2019-01-15T04:43:25.975Z,2.44
2019-01-15T04:44:01.676Z,2.45
2019-01-15T04:44:37.151Z,2.56
2019-01-15T04:45:13.951Z,2.51
2019-01-15T04:45:49.372Z,2.49
2019-01-15T04:46:24.797Z,2.47
2019-01-15T04:47:00.227Z,2.43
2019-01-15T04:47:35.714Z,2.44
2019-01-15T04:48:11.197Z,2.45
2019-01-15T04:48:46.656Z,2.45
2019-01-15T04:49:22.102Z,2.61
2019-01-15T04:49:57.531Z,2.60
2019-01-15T04:50:33.040Z,2.56
2019-01-15T04:51:08.469Z,2.55
2019-01-15T04:51:44.138Z,2.47
2019-01-15T04:52:19.953Z,2.41
2019-01-15T04:53:02.527Z,2.36
2019-01-15T04:53:38.602Z,2.37
2019-01-15T04:54:14.027Z,2.38
2019-01-15T04:54:49.739Z,2.45
2019-01-15T04:55:25.172Z,2.46
2019-01-15T04:56:00.905Z,2.41
2019-01-15T04:56:36.439Z,2.35
2019-01-15T04:57:11.972Z,2.42
2019-01-15T04:57:47.699Z,2.43
2019-01-15T04:58:23.081Z,2.43
2019-01-15T04:58:58.547Z,2.37
2019-01-15T04:59:34.094Z,2.39
2019-01-15T05:00:12.787Z,2.46
2019-01-15T05:00:48.300Z,2.45
2019-01-15T05:01:23.810Z,2.40
2019-01-15T05:01:59.604Z,2.39
2019-01-15T05:02:36.047Z,2.33
2019-01-15T05:03:12.275Z,2.36
2019-01-15T05:03:47.733Z,2.35
2019-01-15T05:04:23.449Z,2.35
2019-01-15T05:04:58.886Z,2.32
2019-01-15T05:05:34.923Z,2.35
2019-01-15T05:06:10.371Z,2.33
2019-01-15T05:06:45.787Z,2.31
2019-01-15T05:07:21.478Z,2.30
2019-01-15T05:07:56.875Z,2.30
2019-01-15T05:08:32.363Z,2.32
2019-01-15T05:09:08.819Z,2.43
2019-01-15T05:09:44.355Z,2.35
2019-01-15T05:10:19.878Z,2.40
2019-01-15T05:10:55.308Z,2.47
2019-01-15T05:11:30.750Z,2.40
2019-01-15T05:12:06.230Z,2.48
2019-01-15T05:12:41.646Z,2.50
2019-01-15T05:13:17.115Z,2.47
2019-01-15T05:13:52.588Z,2.48
2019-01-15T05:14:28.044Z,2.46
2019-01-15T05:15:03.737Z,2.49
2019-01-15T05:15:39.170Z,2.54
2019-01-15T05:16:14.665Z,2.50
2019-01-15T05:16:50.379Z,2.56
2019-01-15T05:17:25.812Z,2.56
2019-01-15T05:18:01.549Z,2.56
2019-01-15T05:18:37.003Z,2.63
2019-01-15T05:19:12.809Z,2.51
2019-01-15T05:19:48.290Z,2.44
2019-01-15T05:20:23.991Z,2.42
2019-01-15T05:20:59.914Z,2.38
2019-01-15T05:21:35.382Z,2.53
2019-01-15T05:22:11.041Z,2.53
2019-01-15T05:22:46.501Z,2.57
2019-01-15T05:23:22.287Z,2.56
2019-01-15T05:23:57.761Z,2.52
2019-01-15T05:24:33.520Z,2.57
2019-01-15T05:25:11.687Z,2.59
2019-01-15T05:25:47.378Z,2.57
2019-01-15T05:26:23.089Z,2.62
2019-01-15T05:26:58.523Z,2.51
2019-01-15T05:27:34.019Z,2.50
2019-01-15T05:28:09.450Z,2.48
2019-01-15T05:28:44.975Z,2.43
2019-01-15T05:29:20.439Z,2.44
2019-01-15T05:29:55.845Z,2.43
2019-01-15T05:30:31.449Z,2.47
2019-01-15T05:31:06.916Z,2.48
2019-01-15T05:31:42.350Z,2.42
2019-01-15T05:32:18.350Z,2.43
2019-01-15T05:32:54.702Z,2.53
2019-01-15T05:33:30.128Z,2.46
2019-01-15T05:34:05.963Z,2.42
2019-01-15T05:34:41.400Z,2.40
2019-01-15T05:35:17.185Z,2.44
2019-01-15T05:35:52.865Z,2.40
2019-01-15T05:36:28.326Z,2.43
2019-01-15T05:37:04.030Z,2.49
2019-01-15T05:37:39.544Z,2.43
2019-01-15T05:38:15.325Z,2.43
2019-01-15T05:38:50.760Z,2.39
2019-01-15T05:39:26.481Z,2.40
2019-01-15T05:40:02.301Z,2.48
2019-01-15T05:40:38.017Z,2.42
2019-01-15T05:41:13.460Z,2.43
2019-01-15T05:41:48.884Z,2.50
2019-01-15T05:42:24.578Z,2.48
2019-01-15T05:43:00.313Z,2.38
2019-01-15T05:43:36.078Z,2.37
2019-01-15T05:44:11.541Z,2.39
2019-01-15T05:44:46.955Z,2.46
2019-01-15T05:45:28.276Z,2.41
2019-01-15T05:46:03.955Z,2.44
2019-01-15T05:46:39.661Z,2.45
2019-01-15T05:47:16.955Z,2.45
2019-01-15T05:47:53.445Z,2.45
2019-01-15T05:48:36.470Z,2.48
2019-01-15T05:49:12.413Z,2.47
2019-01-15T05:49:48.039Z,2.45
2019-01-15T05:50:30.804Z,2.60
2019-01-15T05:51:12.743Z,2.60
2019-01-15T05:51:48.443Z,2.51
2019-01-15T05:52:23.889Z,2.66
2019-01-15T05:52:59.328Z,2.70
2019-01-15T05:53:34.726Z,2.61
2019-01-15T05:54:10.200Z,2.54
2019-01-15T05:54:46.252Z,2.51
2019-01-15T05:55:21.696Z,2.59
2019-01-15T05:55:57.128Z,2.57
2019-01-15T05:56:32.597Z,2.48
2019-01-15T05:57:08.041Z,2.50
2019-01-15T05:57:43.751Z,2.42
2019-01-15T05:58:19.435Z,2.48
2019-01-15T05:58:55.189Z,2.52
2019-01-15T05:59:30.946Z,2.58
2019-01-15T06:00:07.553Z,2.49
2019-01-15T06:00:43.053Z,2.55
2019-01-15T06:01:18.471Z,2.61
2019-01-15T06:01:53.894Z,2.57
2019-01-15T06:02:29.346Z,2.49
2019-01-15T06:03:04.903Z,2.47
2019-01-15T06:03:40.499Z,2.46
2019-01-15T06:04:15.997Z,2.52
2019-01-15T06:04:51.413Z,2.52
2019-01-15T06:05:28.033Z,2.58
2019-01-15T06:06:03.669Z,2.49
2019-01-15T06:06:39.187Z,2.58
2019-01-15T06:07:14.618Z,2.53
2019-01-15T06:07:50.053Z,2.52
2019-01-15T06:08:25.495Z,2.52
2019-01-15T06:09:01.169Z,2.50
2019-01-15T06:09:36.994Z,2.47
2019-01-15T06:10:12.607Z,2.52
2019-01-15T06:10:48.143Z,2.52
2019-01-15T06:11:23.680Z,2.42
2019-01-15T06:11:59.376Z,2.49
2019-01-15T06:12:34.850Z,2.36
2019-01-15T06:13:10.313Z,2.31
2019-01-15T06:13:45.746Z,2.37
2019-01-15T06:14:21.218Z,2.42
2019-01-15T06:14:56.607Z,2.37
2019-01-15T06:15:32.312Z,2.40
2019-01-15T06:16:08.157Z,2.42
2019-01-15T06:16:43.582Z,2.45
2019-01-15T06:17:19.253Z,2.45
2019-01-15T06:17:54.679Z,2.35
2019-01-15T06:18:30.398Z,2.29
2019-01-15T06:19:05.976Z,2.26
2019-01-15T06:19:41.783Z,2.29
2019-01-15T06:20:17.239Z,2.36
2019-01-15T06:20:52.680Z,2.39
2019-01-15T06:21:28.095Z,2.49
2019-01-15T06:22:04.445Z,2.57
2019-01-15T06:22:40.268Z,2.61
2019-01-15T06:23:15.968Z,2.64
2019-01-15T06:23:51.961Z,2.48
2019-01-15T06:24:27.519Z,2.44
2019-01-15T06:25:03.486Z,2.40
2019-01-15T06:25:39.124Z,2.30
2019-01-15T06:26:15.429Z,2.36
2019-01-15T06:26:51.357Z,2.36
2019-01-15T06:27:26.944Z,2.37
2019-01-15T06:28:02.548Z,2.36
2019-01-15T06:28:38.116Z,2.31
2019-01-15T06:29:13.906Z,2.39
2019-01-15T06:29:49.628Z,2.40
2019-01-15T06:30:25.313Z,2.50
2019-01-15T06:31:00.760Z,2.52
2019-01-15T06:31:36.495Z,2.32
2019-01-15T06:32:12.038Z,2.41
2019-01-15T06:32:48.030Z,2.30
2019-01-15T06:33:23.574Z,2.37
2019-01-15T06:33:59.076Z,2.41
2019-01-15T06:34:35.144Z,2.46
2019-01-15T06:35:10.740Z,2.44
2019-01-15T06:35:46.174Z,2.30
2019-01-15T06:36:21.622Z,2.42
2019-01-15T06:36:57.066Z,2.39
2019-01-15T06:37:32.686Z,2.43
2019-01-15T06:38:08.172Z,2.26
2019-01-15T06:38:43.623Z,2.24
2019-01-15T06:39:19.044Z,2.31
2019-01-15T06:39:54.794Z,2.35
2019-01-15T06:40:30.345Z,2.40
2019-01-15T06:41:05.810Z,2.36
2019-01-15T06:41:41.275Z,2.41
2019-01-15T06:42:16.805Z,2.40
2019-01-15T06:42:52.493Z,2.33
2019-01-15T06:43:28.523Z,2.36
2019-01-15T06:44:04.062Z,2.42
2019-01-15T06:44:39.585Z,2.41
2019-01-15T06:45:17.603Z,2.33
2019-01-15T06:45:53.047Z,2.37
2019-01-15T06:46:28.502Z,2.27
2019-01-15T06:47:04.026Z,2.34
2019-01-15T06:47:39.583Z,2.37
2019-01-15T06:48:17.092Z,2.30
2019-01-15T06:48:52.758Z,2.37
2019-01-15T06:49:28.509Z,2.33
2019-01-15T06:50:04.466Z,2.38
2019-01-15T06:50:40.070Z,2.33
2019-01-15T06:51:15.876Z,2.36
2019-01-15T06:51:51.562Z,2.40
2019-01-15T06:52:27.011Z,2.32
2019-01-15T06:53:02.492Z,2.25
2019-01-15T06:53:38.105Z,2.28
2019-01-15T06:54:14.294Z,2.28
2019-01-15T06:54:49.929Z,2.24
2019-01-15T06:55:25.466Z,2.35
2019-01-15T06:56:01.255Z,2.31
2019-01-15T06:56:36.720Z,2.25
2019-01-15T06:57:12.163Z,2.29
2019-01-15T06:57:47.894Z,2.32
2019-01-15T06:58:23.353Z,2.35
2019-01-15T06:58:58.799Z,2.37
2019-01-15T06:59:34.292Z,2.36
2019-01-15T07:00:19.293Z,2.32
2019-01-15T07:00:54.737Z,2.30
2019-01-15T07:01:30.238Z,2.27
2019-01-15T07:02:05.728Z,2.35
2019-01-15T07:02:41.231Z,2.43
2019-01-15T07:03:16.691Z,2.40
2019-01-15T07:03:52.114Z,2.53
2019-01-15T07:04:27.672Z,2.50
2019-01-15T07:05:03.220Z,2.56
2019-01-15T07:05:38.716Z,2.48
2019-01-15T07:06:14.249Z,2.51
2019-01-15T07:06:49.661Z,2.51
2019-01-15T07:07:25.074Z,2.43
2019-01-15T07:08:00.909Z,2.46
2019-01-15T07:08:36.576Z,2.40
2019-01-15T07:09:12.336Z,2.39
2019-01-15T07:09:47.876Z,2.47
2019-01-15T07:10:37.358Z,2.45
2019-01-15T07:11:12.834Z,2.46
2019-01-15T07:11:48.274Z,2.50
2019-01-15T07:12:23.980Z,2.48
2019-01-15T07:12:59.432Z,2.54
2019-01-15T07:13:35.091Z,2.57
2019-01-15T07:14:10.579Z,2.55
2019-01-15T07:14:46.360Z,2.50
2019-01-15T07:15:22.072Z,2.62
2019-01-15T07:15:58.154Z,2.62
2019-01-15T07:16:33.840Z,2.69
2019-01-15T07:17:09.384Z,2.66
2019-01-15T07:17:44.866Z,2.60
2019-01-15T07:18:20.291Z,2.51
2019-01-15T07:18:55.815Z,2.55
2019-01-15T07:19:31.581Z,2.52
2019-01-15T07:20:08.071Z,2.49
2019-01-15T07:20:43.499Z,2.51
2019-01-15T07:21:18.952Z,2.59
2019-01-15T07:21:54.404Z,2.55
2019-01-15T07:22:30.179Z,2.67
2019-01-15T07:23:05.920Z,2.55
2019-01-15T07:23:41.455Z,2.59
2019-01-15T07:24:16.972Z,2.60
2019-01-15T07:24:52.378Z,2.53
2019-01-15T07:25:28.069Z,2.51
2019-01-15T07:26:05.516Z,2.52
2019-01-15T07:26:40.961Z,2.53
2019-01-15T07:27:16.659Z,2.55
2019-01-15T07:27:52.401Z,2.57
2019-01-15T07:28:28.105Z,2.57
2019-01-15T07:29:03.616Z,2.58
2019-01-15T07:29:39.079Z,2.65
2019-01-15T07:30:20.270Z,2.71
2019-01-15T07:30:58.475Z,2.65
2019-01-15T07:31:34.232Z,2.57
2019-01-15T07:32:10.314Z,2.59
2019-01-15T07:32:45.746Z,2.56
2019-01-15T07:33:23.963Z,2.54
2019-01-15T07:33:59.405Z,2.58
2019-01-15T07:34:34.857Z,2.56
2019-01-15T07:35:10.610Z,2.58
2019-01-15T07:35:46.043Z,2.64
2019-01-15T07:36:21.732Z,2.57
2019-01-15T07:36:57.179Z,2.59
2019-01-15T07:37:32.931Z,2.59
2019-01-15T07:38:08.434Z,2.72
2019-01-15T07:38:44.174Z,2.69
2019-01-15T07:39:21.555Z,2.70
2019-01-15T07:39:56.984Z,2.66
2019-01-15T07:40:32.618Z,2.67
2019-01-15T07:41:08.074Z,2.69
2019-01-15T07:41:44.250Z,2.70
2019-01-15T07:42:19.710Z,2.68
2019-01-15T07:42:55.150Z,2.64
2019-01-15T07:43:30.669Z,2.67
2019-01-15T07:44:06.251Z,2.70
2019-01-15T07:44:41.712Z,2.74
2019-01-15T07:45:17.500Z,2.71
2019-01-15T07:45:53.020Z,2.70
2019-01-15T07:46:28.572Z,2.71
2019-01-15T07:47:04.343Z,2.76
2019-01-15T07:47:40.094Z,2.79
2019-01-15T07:48:15.541Z,2.82
2019-01-15T07:48:51.079Z,2.83
2019-01-15T07:49:26.848Z,2.79
2019-01-15T07:50:02.356Z,2.84
2019-01-15T07:50:37.877Z,2.85
2019-01-15T07:51:13.343Z,2.84
2019-01-15T07:51:48.816Z,2.80
2019-01-15T07:52:24.230Z,2.87
2019-01-15T07:52:59.954Z,2.85
2019-01-15T07:53:35.467Z,2.84
2019-01-15T07:54:10.937Z,2.90
2019-01-15T07:54:46.523Z,2.88
2019-01-15T07:55:22.082Z,2.87
2019-01-15T07:55:57.501Z,2.93
2019-01-15T07:56:34.927Z,3.00